createdAt,value
2017-08-24T00:01:25.322Z,56.03
2017-08-24T00:03:54.010Z,56.34
2017-08-24T00:06:22.372Z,56.35
2017-08-24T00:08:51.990Z,56.56
2017-08-24T00:11:20.327Z,56.04
2017-08-24T00:13:49.581Z,56.11
2017-08-24T00:16:18.326Z,55.35
2017-08-24T00:18:46.679Z,54.87
2017-08-24T00:21:15.017Z,55.36
2017-08-24T00:23:44.144Z,55.59
2017-08-24T00:26:12.457Z,55.28
2017-08-24T00:28:40.803Z,55.25
2017-08-24T00:31:09.491Z,55.20
2017-08-24T00:33:37.828Z,55.79
2017-08-24T00:36:06.167Z,55.91
2017-08-24T00:38:35.566Z,56.03
2017-08-24T00:41:03.937Z,55.76
2017-08-24T00:43:32.292Z,55.19
2017-08-24T00:46:01.330Z,55.10
2017-08-24T00:48:29.668Z,55.50
2017-08-24T00:50:58.158Z,55.08
2017-08-24T00:53:26.910Z,54.34
2017-08-24T00:55:56.006Z,54.39
2017-08-24T00:58:24.354Z,54.11
2017-08-24T01:00:53.661Z,54.62
2017-08-24T01:03:22.085Z,54.75
2017-08-24T01:05:50.430Z,54.25
2017-08-24T01:08:19.110Z,55.01
2017-08-24T01:10:47.442Z,55.56
2017-08-24T01:13:15.778Z,54.26
2017-08-24T01:15:44.427Z,54.00
2017-08-24T01:18:12.772Z,54.69
2017-08-24T01:20:41.117Z,54.65
2017-08-24T01:23:10.005Z,54.75
2017-08-24T01:25:38.371Z,54.64
2017-08-24T01:28:06.701Z,54.93
2017-08-24T01:30:35.675Z,55.51
2017-08-24T01:33:04.726Z,55.53
2017-08-24T01:35:33.877Z,55.68
2017-08-24T01:38:02.722Z,55.53
2017-08-24T01:40:31.076Z,55.43
2017-08-24T01:42:59.415Z,55.67
2017-08-24T01:45:28.086Z,55.52
2017-08-24T01:47:56.411Z,55.84
2017-08-24T01:50:24.747Z,56.11
2017-08-24T01:52:53.469Z,55.87
2017-08-24T01:55:21.823Z,56.12
2017-08-24T01:57:50.158Z,56.73
2017-08-24T02:00:18.800Z,56.37
2017-08-24T02:02:47.168Z,56.37
2017-08-24T02:05:15.514Z,56.84
2017-08-24T02:07:44.519Z,57.78
2017-08-24T02:10:12.864Z,58.11
2017-08-24T02:12:41.964Z,57.98
2017-08-24T02:15:10.715Z,58.19
2017-08-24T02:17:39.029Z,57.41
2017-08-24T02:20:07.530Z,58.38
2017-08-24T02:22:37.114Z,58.30
2017-08-24T02:25:05.456Z,57.87
2017-08-24T02:27:34.292Z,57.69
2017-08-24T02:30:02.968Z,57.53
2017-08-24T02:32:31.305Z,56.79
2017-08-24T02:34:59.640Z,57.06
2017-08-24T02:37:28.555Z,57.97
2017-08-24T02:39:56.902Z,58.54
2017-08-24T02:42:25.253Z,58.35
2017-08-24T02:44:53.991Z,58.12
2017-08-24T02:47:22.339Z,57.79
2017-08-24T02:49:50.700Z,58.01
2017-08-24T02:52:19.708Z,57.54
2017-08-24T02:54:48.058Z,57.50
2017-08-24T02:57:16.412Z,57.61
2017-08-24T02:59:45.499Z,58.01
2017-08-24T03:02:13.834Z,57.82
2017-08-24T03:04:42.259Z,57.83
2017-08-24T03:07:10.943Z,57.50
2017-08-24T03:09:39.283Z,57.83
2017-08-24T03:12:07.638Z,57.60
2017-08-24T03:14:37.182Z,58.29
2017-08-24T03:17:06.315Z,58.59
2017-08-24T03:19:34.688Z,58.16
2017-08-24T03:22:03.405Z,57.58
2017-08-24T03:24:31.768Z,57.23
2017-08-24T03:27:00.124Z,57.06
2017-08-24T03:29:29.226Z,57.00
2017-08-24T03:31:57.575Z,56.95
2017-08-24T03:34:25.910Z,56.47
2017-08-24T03:36:54.807Z,56.20
2017-08-24T03:39:23.154Z,56.11
2017-08-24T03:41:51.490Z,56.46
2017-08-24T03:44:20.313Z,56.29
2017-08-24T03:46:48.667Z,57.08
2017-08-24T03:49:17.020Z,56.87
2017-08-24T03:51:45.824Z,56.75
2017-08-24T03:54:14.165Z,56.15
2017-08-24T03:56:42.504Z,56.71
2017-08-24T03:59:12.116Z,57.14
2017-08-24T04:01:40.445Z,56.96
2017-08-24T04:04:09.161Z,57.32
2017-08-24T04:06:37.840Z,57.29
2017-08-24T04:09:06.194Z,56.89
2017-08-24T04:11:35.329Z,57.24
2017-08-24T04:14:04.191Z,57.45
2017-08-24T04:16:32.542Z,57.62
2017-08-24T04:19:00.905Z,57.69
2017-08-24T04:21:29.607Z,57.80
2017-08-24T04:23:58.518Z,57.99
2017-08-24T04:26:26.889Z,57.78
2017-08-24T04:28:55.745Z,57.67
2017-08-24T04:31:24.366Z,57.72
2017-08-24T04:33:52.706Z,58.26
2017-08-24T04:36:21.365Z,58.22
2017-08-24T04:38:49.701Z,57.68
2017-08-24T04:41:18.191Z,57.87
2017-08-24T04:43:47.066Z,57.91
2017-08-24T04:46:15.450Z,57.81
2017-08-24T04:48:43.837Z,57.66
2017-08-24T04:51:12.973Z,57.80
2017-08-24T04:53:41.342Z,57.40
2017-08-24T04:56:09.941Z,56.84
2017-08-24T04:58:38.715Z,56.23
2017-08-24T05:01:07.077Z,56.38
2017-08-24T05:03:35.442Z,57.12
2017-08-24T05:06:04.087Z,56.87
2017-08-24T05:08:33.214Z,56.50
2017-08-24T05:11:01.594Z,57.20
2017-08-24T05:13:30.772Z,57.75
2017-08-24T05:15:59.889Z,57.65
2017-08-24T05:18:28.259Z,57.80
2017-08-24T05:20:57.167Z,57.89
2017-08-24T05:23:25.501Z,58.46
2017-08-24T05:25:54.164Z,58.34
2017-08-24T05:28:23.014Z,58.07
2017-08-24T05:30:51.363Z,57.79
2017-08-24T05:33:20.182Z,57.78
2017-08-24T05:35:48.897Z,58.72
2017-08-24T05:38:17.333Z,58.99
2017-08-24T05:40:47.209Z,58.88
2017-08-24T05:43:16.018Z,59.08
2017-08-24T05:45:45.150Z,58.55
2017-08-24T05:48:13.520Z,58.36
2017-08-24T05:50:43.189Z,57.94
2017-08-24T05:53:12.504Z,57.93
2017-08-24T05:55:40.892Z,58.50
2017-08-24T05:58:10.755Z,58.62
2017-08-24T06:00:40.050Z,59.53
2017-08-24T06:03:08.470Z,59.40
2017-08-24T06:05:37.207Z,59.77
2017-08-24T06:08:05.580Z,59.43
2017-08-24T06:10:33.929Z,59.09
2017-08-24T06:13:02.838Z,58.45
2017-08-24T06:15:31.202Z,58.23
2017-08-24T06:17:59.779Z,59.16
2017-08-24T06:20:29.436Z,59.20
2017-08-24T06:22:57.787Z,59.13
2017-08-24T06:25:26.130Z,59.29
2017-08-24T06:27:54.966Z,58.84
2017-08-24T06:30:24.104Z,59.86
2017-08-24T06:32:52.463Z,60.70
2017-08-24T06:35:21.424Z,60.53
2017-08-24T06:37:49.769Z,59.77
2017-08-24T06:40:18.128Z,60.04
2017-08-24T06:42:47.087Z,59.11
2017-08-24T06:45:15.446Z,59.47
2017-08-24T06:47:43.813Z,59.43
2017-08-24T06:50:13.250Z,59.64
2017-08-24T06:52:41.615Z,59.55
2017-08-24T06:55:10.734Z,59.39
2017-08-24T06:57:39.615Z,58.46
2017-08-24T07:00:07.964Z,57.85
2017-08-24T07:02:36.333Z,58.29
2017-08-24T07:05:05.153Z,58.15
2017-08-24T07:07:33.490Z,58.24
2017-08-24T07:10:01.852Z,58.02
2017-08-24T07:12:30.749Z,59.52
2017-08-24T07:14:59.135Z,58.90
2017-08-24T07:17:27.487Z,57.89
2017-08-24T07:19:56.170Z,57.66
2017-08-24T07:22:24.520Z,58.58
2017-08-24T07:24:52.923Z,59.79
2017-08-24T07:27:22.005Z,59.59
2017-08-24T07:29:50.381Z,59.03
2017-08-24T07:32:18.726Z,59.05
2017-08-24T07:34:47.438Z,59.67
2017-08-24T07:37:17.186Z,59.66
2017-08-24T07:39:45.527Z,59.26
2017-08-24T07:42:14.317Z,59.23
2017-08-24T07:44:42.655Z,59.17
2017-08-24T07:47:11.063Z,59.32
2017-08-24T07:49:39.770Z,59.39
2017-08-24T07:52:08.900Z,59.36
2017-08-24T07:54:37.327Z,60.53
2017-08-24T07:57:06.259Z,60.83
2017-08-24T07:59:34.877Z,60.05
2017-08-24T08:02:03.306Z,61.82
2017-08-24T08:04:32.858Z,61.08
2017-08-24T08:07:01.231Z,62.75
2017-08-24T08:09:29.606Z,62.99
2017-08-24T08:11:58.382Z,63.31
2017-08-24T08:14:26.735Z,62.63
2017-08-24T08:16:55.083Z,61.29
2017-08-24T08:19:23.798Z,59.93
2017-08-24T08:21:52.512Z,59.54
2017-08-24T08:24:20.850Z,59.05
2017-08-24T08:26:49.677Z,60.30
2017-08-24T08:29:18.040Z,62.64
2017-08-24T08:31:46.474Z,62.39
2017-08-24T08:34:16.087Z,64.14
2017-08-24T08:36:44.476Z,62.93
2017-08-24T08:39:12.853Z,62.91
2017-08-24T08:41:41.539Z,63.38
2017-08-24T08:44:09.910Z,62.96
2017-08-24T08:46:38.639Z,61.90
2017-08-24T08:49:07.447Z,62.08
2017-08-24T08:51:35.819Z,63.32
2017-08-24T08:54:04.184Z,63.93
2017-08-24T08:56:33.090Z,64.71
2017-08-24T08:59:02.230Z,64.17
2017-08-24T09:01:30.596Z,65.34
2017-08-24T09:03:59.373Z,65.71
2017-08-24T09:06:27.733Z,64.86
2017-08-24T09:08:56.172Z,65.39
2017-08-24T09:11:24.855Z,65.69
2017-08-24T09:13:53.238Z,67.53
2017-08-24T09:16:22.319Z,68.47
2017-08-24T09:18:51.297Z,68.85
2017-08-24T09:21:19.732Z,69.96
2017-08-24T09:23:48.113Z,70.26
2017-08-24T09:26:17.273Z,69.40
2017-08-24T09:28:45.701Z,70.68
2017-08-24T09:31:14.080Z,70.29
2017-08-24T09:33:42.980Z,69.66
2017-08-24T09:36:11.344Z,70.82
2017-08-24T09:38:39.716Z,70.71
2017-08-24T09:41:09.404Z,70.58
2017-08-24T09:43:37.761Z,70.08
2017-08-24T09:46:06.127Z,70.11
2017-08-24T09:48:34.771Z,69.86
2017-08-24T09:51:03.130Z,70.35
2017-08-24T09:53:31.487Z,71.51
2017-08-24T09:56:00.138Z,72.67
2017-08-24T09:58:28.489Z,72.40
2017-08-24T10:00:56.849Z,72.24
2017-08-24T10:03:25.529Z,71.34
2017-08-24T10:05:53.878Z,70.41
2017-08-24T10:08:22.234Z,69.34
2017-08-24T10:10:50.877Z,67.15
2017-08-24T10:13:19.223Z,65.21
2017-08-24T10:15:47.570Z,64.65
2017-08-24T10:18:16.252Z,64.64
2017-08-24T10:20:44.593Z,63.06
2017-08-24T10:23:12.955Z,62.01
2017-08-24T10:25:41.843Z,61.23
2017-08-24T10:28:10.226Z,59.63
2017-08-24T10:30:38.627Z,57.47
2017-08-24T10:33:07.549Z,54.98
2017-08-24T10:35:35.913Z,53.37
2017-08-24T10:38:04.319Z,50.11
2017-08-24T10:40:32.986Z,48.58
2017-08-24T10:43:01.337Z,45.21
2017-08-24T10:45:29.692Z,42.19
2017-08-24T10:47:58.464Z,41.02
2017-08-24T10:50:26.809Z,41.78
2017-08-24T10:52:55.180Z,40.26
2017-08-24T10:55:23.855Z,39.43
2017-08-24T10:57:52.203Z,40.40
2017-08-24T11:00:20.586Z,38.31
2017-08-24T11:02:49.347Z,38.18
2017-08-24T11:05:17.714Z,37.47
2017-08-24T11:07:46.074Z,37.46
2017-08-24T11:10:15.792Z,37.31
2017-08-24T11:12:44.144Z,36.74
2017-08-24T11:15:12.509Z,35.65
2017-08-24T11:17:41.275Z,36.20
2017-08-24T11:20:09.611Z,36.11
2017-08-24T11:22:37.964Z,35.82
2017-08-24T11:25:07.519Z,35.00
2017-08-24T11:27:36.687Z,35.66
2017-08-24T11:30:05.062Z,35.58
2017-08-24T11:32:34.220Z,36.20
2017-08-24T11:35:02.616Z,37.18
2017-08-24T11:37:30.996Z,36.53
2017-08-24T11:40:00.026Z,36.87
2017-08-24T11:42:28.371Z,37.46
2017-08-24T11:44:56.728Z,36.15
2017-08-24T11:47:25.496Z,35.26
2017-08-24T11:49:53.845Z,35.27
2017-08-24T11:52:22.198Z,35.76
2017-08-24T11:54:51.162Z,35.50
2017-08-24T11:57:19.512Z,33.94
2017-08-24T11:59:47.853Z,33.61
2017-08-24T12:02:16.785Z,33.66
2017-08-24T12:04:45.132Z,34.36
2017-08-24T12:07:13.501Z,34.67
2017-08-24T12:09:42.128Z,34.70
2017-08-24T12:12:10.487Z,33.92
2017-08-24T12:14:39.546Z,34.01
2017-08-24T12:17:08.512Z,34.02
2017-08-24T12:19:36.856Z,33.81
2017-08-24T12:22:05.202Z,34.26
2017-08-24T12:24:33.948Z,35.28
2017-08-24T12:27:02.358Z,35.84
2017-08-24T12:29:30.725Z,36.91
2017-08-24T12:31:59.377Z,38.12
2017-08-24T12:34:28.505Z,38.75
2017-08-24T12:36:56.907Z,38.96
2017-08-24T12:39:25.792Z,38.81
2017-08-24T12:41:54.153Z,37.96
2017-08-24T12:44:22.809Z,39.46
2017-08-24T12:46:53.364Z,39.41
2017-08-24T12:49:21.728Z,39.28
2017-08-24T12:51:50.107Z,38.86
2017-08-24T12:54:18.737Z,38.84
2017-08-24T12:56:47.067Z,39.42
2017-08-24T12:59:15.414Z,38.07
2017-08-24T13:01:44.464Z,36.87
2017-08-24T13:04:12.789Z,36.58
2017-08-24T13:06:41.135Z,37.26
2017-08-24T13:09:09.931Z,38.30
2017-08-24T13:11:38.302Z,38.32
2017-08-24T13:14:07.456Z,38.28
2017-08-24T13:16:36.085Z,38.77
2017-08-24T13:19:04.429Z,39.94
2017-08-24T13:21:32.980Z,40.42
2017-08-24T13:24:01.680Z,40.23
2017-08-24T13:26:30.039Z,39.57
2017-08-24T13:28:58.368Z,39.46
2017-08-24T13:31:27.114Z,38.97
2017-08-24T13:33:55.478Z,38.13
2017-08-24T13:36:23.817Z,37.46
2017-08-24T13:38:52.696Z,37.51
2017-08-24T13:41:21.071Z,38.70
2017-08-24T13:43:49.691Z,38.61
2017-08-24T13:46:18.540Z,38.75
2017-08-24T13:48:46.905Z,38.79
2017-08-24T13:51:15.256Z,39.09
2017-08-24T13:53:44.195Z,38.96
2017-08-24T13:56:13.127Z,38.83
2017-08-24T13:58:41.468Z,38.45
2017-08-24T14:01:10.258Z,37.74
2017-08-24T14:03:39.381Z,37.55
2017-08-24T14:06:07.733Z,36.78
2017-08-24T14:08:36.468Z,36.86
2017-08-24T14:11:04.799Z,36.28
2017-08-24T14:13:33.163Z,36.96
2017-08-24T14:16:02.783Z,36.57
2017-08-24T14:18:31.132Z,36.42
2017-08-24T14:20:59.470Z,36.83
2017-08-24T14:23:28.251Z,36.63
2017-08-24T14:25:56.614Z,36.51
2017-08-24T14:28:24.975Z,36.45
2017-08-24T14:30:54.278Z,36.24
2017-08-24T14:33:22.652Z,36.62
2017-08-24T14:35:51.000Z,37.52
2017-08-24T14:38:19.720Z,38.90
2017-08-24T14:40:48.827Z,39.08
2017-08-24T14:43:17.186Z,38.95
2017-08-24T14:45:46.407Z,39.09
2017-08-24T14:48:15.673Z,39.67
2017-08-24T14:50:44.236Z,40.09
2017-08-24T14:53:13.023Z,40.40
2017-08-24T14:55:41.463Z,40.82
2017-08-24T14:58:10.630Z,41.29
2017-08-24T15:00:40.131Z,40.99
2017-08-24T15:03:09.271Z,40.69
2017-08-24T15:05:37.603Z,40.28
2017-08-24T15:08:06.246Z,40.40
2017-08-24T15:10:34.600Z,40.03
2017-08-24T15:13:02.989Z,40.01
2017-08-24T15:15:31.828Z,39.56
2017-08-24T15:18:00.155Z,39.29
2017-08-24T15:20:28.505Z,38.88
2017-08-24T15:22:57.175Z,38.46
2017-08-24T15:25:25.553Z,38.75
2017-08-24T15:27:53.910Z,39.72
2017-08-24T15:30:22.765Z,39.95
2017-08-24T15:32:51.093Z,39.55
2017-08-24T15:35:19.429Z,39.24
2017-08-24T15:37:48.291Z,39.49
2017-08-24T15:40:16.674Z,38.86
2017-08-24T15:42:45.039Z,38.89
2017-08-24T15:45:14.099Z,39.31
2017-08-24T15:47:42.475Z,39.15
2017-08-24T15:50:10.827Z,39.21
2017-08-24T15:52:39.464Z,39.00
2017-08-24T15:55:08.434Z,39.45
2017-08-24T15:57:36.787Z,39.48
2017-08-24T16:00:05.912Z,39.89
2017-08-24T16:02:34.287Z,40.22
2017-08-24T16:05:02.646Z,40.45
2017-08-24T16:07:31.631Z,41.42
2017-08-24T16:10:00.020Z,41.68
2017-08-24T16:12:28.379Z,41.73
2017-08-24T16:14:57.045Z,42.11
2017-08-24T16:17:25.394Z,41.88
2017-08-24T16:19:53.979Z,42.08
2017-08-24T16:22:23.173Z,42.18
2017-08-24T16:24:51.561Z,42.17
2017-08-24T16:27:19.944Z,42.58
2017-08-24T16:29:48.562Z,43.10
2017-08-24T16:32:16.906Z,42.89
2017-08-24T16:34:45.244Z,43.09
2017-08-24T16:37:14.606Z,43.13
2017-08-24T16:39:42.967Z,43.49
2017-08-24T16:42:12.089Z,43.56
2017-08-24T16:44:40.826Z,43.89
2017-08-24T16:47:09.159Z,43.64
2017-08-24T16:49:37.514Z,44.07
2017-08-24T16:52:06.208Z,44.40
2017-08-24T16:54:34.559Z,44.52
2017-08-24T16:57:02.894Z,44.06
2017-08-24T16:59:31.675Z,44.11
2017-08-24T17:02:00.780Z,43.91
2017-08-24T17:04:29.156Z,43.99
2017-08-24T17:06:57.922Z,44.21
2017-08-24T17:09:26.629Z,44.45
2017-08-24T17:11:55.974Z,44.74
2017-08-24T17:14:24.610Z,44.63
2017-08-24T17:16:52.913Z,44.46
2017-08-24T17:19:21.282Z,44.63
2017-08-24T17:21:50.146Z,44.75
2017-08-24T17:24:18.500Z,44.85
2017-08-24T17:26:47.792Z,45.00
2017-08-24T17:29:16.567Z,44.82
2017-08-24T17:31:44.926Z,45.21
2017-08-24T17:34:13.278Z,44.96
2017-08-24T17:36:42.816Z,45.44
2017-08-24T17:39:11.182Z,45.51
2017-08-24T17:41:39.542Z,45.66
2017-08-24T17:44:08.218Z,45.65
2017-08-24T17:46:36.571Z,46.55
2017-08-24T17:49:04.921Z,47.29
2017-08-24T17:51:33.856Z,48.10
2017-08-24T17:54:02.222Z,48.59
2017-08-24T17:56:31.680Z,49.04
2017-08-24T17:59:00.345Z,49.60
2017-08-24T18:01:28.679Z,49.83
2017-08-24T18:03:57.032Z,50.40
2017-08-24T18:06:25.919Z,50.68
2017-08-24T18:08:54.286Z,50.64
2017-08-24T18:11:22.630Z,51.09
2017-08-24T18:13:51.443Z,51.33
2017-08-24T18:16:19.786Z,51.58
2017-08-24T18:18:48.145Z,52.08
2017-08-24T18:21:16.864Z,52.84
2017-08-24T18:23:45.218Z,52.68
2017-08-24T18:26:13.612Z,53.33
2017-08-24T18:28:42.303Z,53.41
2017-08-24T18:31:11.447Z,53.65
2017-08-24T18:33:40.584Z,54.18
2017-08-24T18:36:10.259Z,54.83
2017-08-24T18:38:38.625Z,54.44
2017-08-24T18:41:06.981Z,54.41
2017-08-24T18:43:35.837Z,54.52
2017-08-24T18:46:04.179Z,54.90
2017-08-24T18:48:33.299Z,55.22
2017-08-24T18:51:02.075Z,55.09
2017-08-24T18:53:30.432Z,55.54
2017-08-24T18:55:59.554Z,55.62
2017-08-24T18:58:28.510Z,55.49
2017-08-24T19:00:56.867Z,55.55
2017-08-24T19:03:26.023Z,55.30
2017-08-24T19:05:54.817Z,55.44
2017-08-24T19:08:23.165Z,55.27
2017-08-24T19:10:51.492Z,55.82
2017-08-24T19:13:20.177Z,55.74
2017-08-24T19:15:49.766Z,55.50
2017-08-24T19:18:18.113Z,55.62
2017-08-24T19:20:46.808Z,55.38
2017-08-24T19:23:15.930Z,55.42
2017-08-24T19:25:44.891Z,55.53
2017-08-24T19:28:13.535Z,55.38
2017-08-24T19:30:41.877Z,55.51
2017-08-24T19:33:10.992Z,55.37
2017-08-24T19:35:39.979Z,55.10
2017-08-24T19:38:08.320Z,54.88
2017-08-24T19:40:36.671Z,54.92
2017-08-24T19:43:05.540Z,54.96
2017-08-24T19:45:33.861Z,54.83
2017-08-24T19:48:02.198Z,54.90
2017-08-24T19:50:30.868Z,55.11
2017-08-24T19:52:59.201Z,55.11
2017-08-24T19:55:27.553Z,54.85
2017-08-24T19:57:56.214Z,54.67
2017-08-24T20:00:25.206Z,54.72
2017-08-24T20:02:53.558Z,54.74
2017-08-24T20:05:23.486Z,55.17
2017-08-24T20:07:52.622Z,55.17
2017-08-24T20:10:20.999Z,55.05
2017-08-24T20:12:50.568Z,55.25
2017-08-24T20:15:18.920Z,56.15
2017-08-24T20:17:47.274Z,55.53
2017-08-24T20:20:15.956Z,55.77
2017-08-24T20:22:44.318Z,55.68
2017-08-24T20:25:12.724Z,56.14
2017-08-24T20:27:41.876Z,55.87
2017-08-24T20:30:10.247Z,56.00
2017-08-24T20:32:39.356Z,55.03
2017-08-24T20:35:08.750Z,54.90
2017-08-24T20:37:37.669Z,55.18
2017-08-24T20:40:06.014Z,55.15
2017-08-24T20:42:35.427Z,54.88
2017-08-24T20:45:04.752Z,54.84
2017-08-24T20:47:33.093Z,54.78
2017-08-24T20:50:03.524Z,54.37
2017-08-24T20:52:31.874Z,54.51
2017-08-24T20:55:00.247Z,54.67
2017-08-24T20:57:29.238Z,54.28
2017-08-24T20:59:57.957Z,55.02
2017-08-24T21:02:27.082Z,55.08
2017-08-24T21:04:56.479Z,54.96
2017-08-24T21:07:24.810Z,55.14
2017-08-24T21:09:53.148Z,55.21
2017-08-24T21:12:21.870Z,55.49
2017-08-24T21:14:50.256Z,55.02
2017-08-24T21:17:18.584Z,54.62
2017-08-24T21:19:47.371Z,54.80
2017-08-24T21:22:15.726Z,55.28
2017-08-24T21:24:44.831Z,55.13
2017-08-24T21:27:13.664Z,55.41
2017-08-24T21:29:42.034Z,55.94
2017-08-24T21:32:10.395Z,56.47
2017-08-24T21:34:39.376Z,56.67
2017-08-24T21:37:08.471Z,56.96
2017-08-24T21:39:36.893Z,57.27
2017-08-24T21:42:05.654Z,57.39
2017-08-24T21:44:34.077Z,57.82
2017-08-24T21:47:02.456Z,57.64
2017-08-24T21:49:31.079Z,57.89
2017-08-24T21:51:59.466Z,58.43
2017-08-24T21:54:27.894Z,59.21
2017-08-24T21:56:56.654Z,58.66
2017-08-24T21:59:24.999Z,59.14
2017-08-24T22:01:54.099Z,58.66
2017-08-24T22:04:22.881Z,58.59
2017-08-24T22:06:51.250Z,58.34
2017-08-24T22:09:19.586Z,58.62
2017-08-24T22:11:48.354Z,58.88
2017-08-24T22:14:17.212Z,59.08
2017-08-24T22:16:45.569Z,59.68
2017-08-24T22:19:14.483Z,59.37
2017-08-24T22:21:42.830Z,59.53
2017-08-24T22:24:11.181Z,59.43
2017-08-24T22:26:40.056Z,59.37
2017-08-24T22:29:08.422Z,59.44
2017-08-24T22:31:37.540Z,59.76
2017-08-24T22:34:06.148Z,59.53
2017-08-24T22:36:34.490Z,60.63
2017-08-24T22:39:03.613Z,60.64
2017-08-24T22:41:32.579Z,60.57
2017-08-24T22:44:00.912Z,60.47
2017-08-24T22:46:29.304Z,60.81
2017-08-24T22:48:58.456Z,61.06
2017-08-24T22:51:26.822Z,61.75
2017-08-24T22:54:01.692Z,62.69
2017-08-24T22:56:35.471Z,62.73
2017-08-24T22:59:09.582Z,62.82
2017-08-24T23:01:43.349Z,62.74
2017-08-24T23:04:12.262Z,62.78
2017-08-24T23:06:40.813Z,62.79
2017-08-24T23:09:09.163Z,62.97
2017-08-24T23:11:37.932Z,63.20
2017-08-24T23:14:06.276Z,63.61
2017-08-24T23:16:34.878Z,63.94
2017-08-24T23:19:04.217Z,64.16
2017-08-24T23:21:33.478Z,64.24
2017-08-24T23:24:01.840Z,64.81
2017-08-24T23:26:30.657Z,64.78
2017-08-24T23:28:58.997Z,64.41
2017-08-24T23:31:27.363Z,65.20
2017-08-24T23:33:56.299Z,65.63
2017-08-24T23:36:24.721Z,65.25
2017-08-24T23:38:53.191Z,65.36
2017-08-24T23:41:22.005Z,65.52
2017-08-24T23:43:50.434Z,66.30
2017-08-24T23:46:19.498Z,66.30
2017-08-24T23:48:48.250Z,66.17
2017-08-24T23:51:16.679Z,66.13
2017-08-24T23:53:45.873Z,66.15
2017-08-24T23:56:14.758Z,66.64
2017-08-24T23:58:43.190Z,66.66
